Aviation Digital Data Service (ADDS)

Output produced by METARs form (1650 UTC 31 March 2015)
found at http://aviationweather.gov/adds/metars/
 
KBPT 311251Z 3113/0112 18004KT 5SM BR SCT018 
     FM311400 21007KT P6SM SCT020 
     FM311700 20012G18KT P6SM SCT040 
     FM010000 18005KT P6SM FEW020 SCT200 
     FM010500 17003KT 3SM BR SCT015